Time;durP1;ratioP1;P1;durP2;ratioP2;P2;SDS_P1;SDS_P2;PMS_P1;PMS_P2;Temp;Humidity;BMP_temperature;BMP_pressure;BME280_temperature;BME280_humidity;BME280_pressure;Samples;Min_cycle;Max_cycle;Signal;HPM_P1;HPM_P2
2022/06/28 00:00:37;;;;;;;3.83;1.33;;;17.80;99.90;;;;;;5048547;28;20235;-41
2022/06/28 00:03:05;;;;;;;2.63;1.47;;;17.80;99.90;;;;;;5047752;28;20204;-42
2022/06/28 00:05:37;;;;;;;2.50;1.17;;;17.80;99.90;;;;;;5047119;28;20212;-41
2022/06/28 00:08:04;;;;;;;3.17;1.40;;;17.70;99.90;;;;;;5048057;28;20293;-41
2022/06/28 00:10:32;;;;;;;2.20;1.30;;;17.70;99.90;;;;;;5047915;28;20200;-42
2022/06/28 00:13:02;;;;;;;4.13;1.60;;;17.70;99.90;;;;;;5047808;28;20216;-41
2022/06/28 00:18:16;;;;;;;2.80;1.20;;;17.70;99.90;;;;;;5033715;28;20196;-41
2022/06/28 00:20:43;;;;;;;4.43;1.50;;;17.60;99.90;;;;;;5048095;28;20213;-41
2022/06/28 00:23:10;;;;;;;3.43;1.20;;;17.60;99.90;;;;;;5047512;28;20718;-41
2022/06/28 00:25:42;;;;;;;2.63;1.13;;;17.60;99.90;;;;;;5047227;28;20219;-41
2022/06/28 00:28:09;;;;;;;1.50;1.20;;;17.50;99.90;;;;;;5049356;28;20228;-41
2022/06/28 00:30:39;;;;;;;3.10;1.30;;;17.50;99.90;;;;;;5048728;28;20201;-41
2022/06/28 00:33:11;;;;;;;3.65;1.25;;;17.50;99.90;;;;;;5049042;28;20204;-40
2022/06/28 00:35:40;;;;;;;2.30;1.10;;;17.40;99.90;;;;;;5047015;28;20265;-41
2022/06/28 00:38:08;;;;;;;1.67;0.97;;;17.40;99.90;;;;;;5045506;28;20729;-41
2022/06/28 00:40:52;;;;;;;3.00;1.40;;;17.30;99.90;;;;;;5047106;28;20551;-40
2022/06/28 00:43:23;;;;;;;2.08;1.20;;;17.30;99.90;;;;;;5049008;28;20761;-40
2022/06/28 00:45:51;;;;;;;4.90;1.63;;;17.30;99.90;;;;;;5036864;28;20197;-41
2022/06/28 00:48:21;;;;;;;3.50;1.53;;;17.30;99.90;;;;;;5037024;28;20212;-41
2022/06/28 00:50:54;;;;;;;2.90;1.08;;;17.20;99.90;;;;;;5047394;28;20216;-41
2022/06/28 00:53:26;;;;;;;2.92;1.20;;;17.20;99.90;;;;;;5048594;28;20200;-41
2022/06/28 00:55:58;;;;;;;2.53;1.50;;;17.20;99.90;;;;;;5046883;28;20612;-41
2022/06/28 00:58:28;;;;;;;2.92;1.23;;;17.20;99.90;;;;;;5047619;28;20879;-41
2022/06/28 01:00:55;;;;;;;2.33;1.40;;;17.10;99.90;;;;;;5047395;28;20717;-41
2022/06/28 01:03:25;;;;;;;3.57;1.40;;;17.10;99.90;;;;;;5044412;28;20358;-32
2022/06/28 01:05:53;;;;;;;2.53;1.10;;;17.10;99.90;;;;;;5044064;28;20302;-32
2022/06/28 01:08:25;;;;;;;2.30;1.40;;;17.10;99.90;;;;;;5047350;28;20212;-32
2022/06/28 01:10:52;;;;;;;0.80;0.80;;;17.10;99.90;;;;;;5045940;28;20282;-33
2022/06/28 01:13:22;;;;;;;2.97;1.20;;;17.10;99.90;;;;;;5048170;28;20231;-32
2022/06/28 01:15:52;;;;;;;3.77;1.37;;;17.10;99.90;;;;;;5047657;28;20216;-32
2022/06/28 01:18:20;;;;;;;3.03;1.27;;;17.10;99.90;;;;;;5044786;28;20211;-32
2022/06/28 01:20:50;;;;;;;3.00;1.30;;;17.10;99.90;;;;;;5042827;28;20208;-32
2022/06/28 01:23:19;;;;;;;4.60;1.07;;;17.10;99.90;;;;;;5046407;28;20247;-32
2022/06/28 01:25:49;;;;;;;3.73;1.57;;;17.10;99.90;;;;;;5047341;28;20207;-32
2022/06/28 01:28:20;;;;;;;2.47;1.33;;;17.10;99.90;;;;;;5047726;28;20208;-32
2022/06/28 01:30:51;;;;;;;5.93;1.20;;;17.00;99.90;;;;;;5046484;28;20239;-32
2022/06/28 01:33:18;;;;;;;6.27;1.40;;;17.00;99.90;;;;;;5046580;28;20591;-32
2022/06/28 01:35:45;;;;;;;2.87;1.30;;;17.00;99.90;;;;;;5046627;28;20204;-32
2022/06/28 01:38:15;;;;;;;1.00;0.90;;;17.00;99.90;;;;;;5046991;28;20240;-32
2022/06/28 01:40:46;;;;;;;3.37;1.30;;;17.00;99.90;;;;;;5043684;28;20713;-32
2022/06/28 01:43:14;;;;;;;3.20;1.27;;;16.90;99.90;;;;;;5046024;28;20683;-32
2022/06/28 01:45:45;;;;;;;3.13;1.37;;;16.90;99.90;;;;;;5046763;28;20200;-32
2022/06/28 01:48:13;;;;;;;3.37;1.30;;;16.90;99.90;;;;;;5047605;28;20640;-32
2022/06/28 01:50:43;;;;;;;3.83;1.07;;;16.90;99.90;;;;;;5046209;28;20216;-32
2022/06/28 01:53:10;;;;;;;3.90;1.40;;;16.90;99.90;;;;;;5047758;28;20216;-32
2022/06/28 01:55:41;;;;;;;1.83;1.13;;;16.80;99.90;;;;;;5045586;28;20215;-32
2022/06/28 01:58:11;;;;;;;4.17;1.40;;;16.80;99.90;;;;;;5047444;28;20212;-32
2022/06/28 02:00:40;;;;;;;3.17;1.60;;;16.80;99.90;;;;;;5050681;28;20288;-32
2022/06/28 02:03:08;;;;;;;1.90;1.00;;;16.80;99.90;;;;;;5049427;28;20261;-32
2022/06/28 02:05:38;;;;;;;4.73;1.30;;;16.70;99.90;;;;;;5046433;28;20219;-32
2022/06/28 02:08:09;;;;;;;3.37;1.50;;;16.70;99.90;;;;;;5045537;28;20196;-32
2022/06/28 02:10:39;;;;;;;2.97;1.20;;;16.70;99.90;;;;;;5059882;28;20260;-32
2022/06/28 02:13:06;;;;;;;2.43;1.30;;;16.70;99.90;;;;;;5045411;28;20266;-32
2022/06/28 02:15:33;;;;;;;5.00;1.30;;;16.70;99.90;;;;;;5045808;28;20216;-32
2022/06/28 02:18:03;;;;;;;7.30;1.30;;;16.60;99.90;;;;;;5044901;28;20223;-32
2022/06/28 02:20:30;;;;;;;3.03;1.13;;;16.60;99.90;;;;;;5045081;28;20722;-34
2022/06/28 02:23:02;;;;;;;1.93;1.23;;;16.60;99.90;;;;;;5047328;28;20224;-33
2022/06/28 02:25:29;;;;;;;1.70;1.10;;;16.50;99.90;;;;;;5045394;28;20258;-33
2022/06/28 02:27:59;;;;;;;2.03;1.10;;;16.50;99.90;;;;;;5047302;28;20204;-32
2022/06/28 02:30:26;;;;;;;2.20;1.07;;;16.50;99.90;;;;;;5047359;28;20196;-32
2022/06/28 02:32:53;;;;;;;3.17;1.13;;;16.50;99.90;;;;;;5047276;28;20498;-32
2022/06/28 02:40:57;;;;;;;3.63;1.20;;;16.30;99.90;;;;;;5050301;28;20683;-31
2022/06/28 02:43:29;;;;;;;2.17;1.13;;;16.30;99.90;;;;;;5044697;28;20695;-32
2022/06/28 02:45:57;;;;;;;4.10;1.27;;;16.30;99.90;;;;;;5031112;28;20558;-31
2022/06/28 02:48:35;;;;;;;2.33;1.10;;;16.30;99.90;;;;;;5034508;28;20699;-33
2022/06/28 02:51:02;;;;;;;1.93;1.30;;;16.20;99.90;;;;;;5048553;28;20518;-32
2022/06/28 02:53:32;;;;;;;2.00;1.30;;;16.20;99.90;;;;;;5048526;28;20212;-32
2022/06/28 02:56:02;;;;;;;2.80;1.27;;;16.20;99.90;;;;;;5061489;28;20220;-32
2022/06/28 02:58:29;;;;;;;3.37;1.27;;;16.20;99.90;;;;;;5050911;28;20202;-32
2022/06/28 03:01:04;;;;;;;3.23;1.17;;;16.10;99.90;;;;;;5049964;28;20219;-32
2022/06/28 03:03:31;;;;;;;5.33;1.50;;;16.10;99.90;;;;;;5048791;28;20601;-32
2022/06/28 03:05:59;;;;;;;3.23;1.20;;;16.10;99.90;;;;;;5049943;28;20266;-32
2022/06/28 03:08:26;;;;;;;4.73;1.40;;;16.10;99.90;;;;;;5050590;28;20211;-32
2022/06/28 03:10:53;;;;;;;1.53;1.20;;;16.00;99.90;;;;;;5049137;28;20666;-32
2022/06/28 03:13:25;;;;;;;2.23;1.17;;;16.00;99.90;;;;;;5049728;28;20295;-32
2022/06/28 03:15:55;;;;;;;3.50;1.17;;;16.00;99.90;;;;;;5048976;28;20564;-32
2022/06/28 03:18:22;;;;;;;6.00;1.50;;;16.00;99.90;;;;;;5049040;28;20254;-32
2022/06/28 03:20:50;;;;;;;4.40;1.30;;;15.90;99.90;;;;;;5050194;28;20261;-32
2022/06/28 03:23:19;;;;;;;5.07;1.60;;;15.90;99.90;;;;;;5050076;28;20302;-33
2022/06/28 03:25:46;;;;;;;3.50;1.50;;;15.90;99.90;;;;;;5049975;28;20651;-32
2022/06/28 03:28:16;;;;;;;4.57;1.77;;;15.80;99.90;;;;;;5049362;28;20674;-32
2022/06/28 03:30:53;;;;;;;3.60;1.10;;;15.80;99.90;;;;;;5049931;28;20220;-31
2022/06/28 03:33:23;;;;;;;2.87;1.30;;;15.80;99.90;;;;;;5049182;28;20627;-32
2022/06/28 03:35:54;;;;;;;4.93;1.53;;;15.80;99.90;;;;;;5048107;28;20266;-32
2022/06/28 03:38:22;;;;;;;2.53;1.63;;;15.80;99.90;;;;;;5049802;28;20272;-32
2022/06/28 03:40:51;;;;;;;1.83;1.20;;;15.80;99.90;;;;;;5049738;28;20212;-32
2022/06/28 03:43:21;;;;;;;5.20;1.17;;;15.70;99.90;;;;;;5049324;28;20289;-32
2022/06/28 03:45:53;;;;;;;2.83;1.10;;;15.70;99.90;;;;;;5048867;28;20200;-32
2022/06/28 03:48:20;;;;;;;2.17;1.23;;;15.70;99.90;;;;;;5060005;28;20208;-31
2022/06/28 03:50:47;;;;;;;3.67;1.50;;;15.70;99.90;;;;;;5048442;28;20223;-32
2022/06/28 03:53:19;;;;;;;3.33;1.37;;;15.70;99.90;;;;;;5049255;28;20208;-32
2022/06/28 03:55:46;;;;;;;1.83;1.10;;;15.70;99.90;;;;;;5048710;28;20691;-33
2022/06/28 03:58:14;;;;;;;2.83;1.47;;;15.80;99.90;;;;;;5048768;28;20228;-32
2022/06/28 04:00:43;;;;;;;2.63;1.27;;;15.80;99.90;;;;;;5049315;28;20319;-32
2022/06/28 04:03:10;;;;;;;4.23;1.37;;;15.80;99.90;;;;;;5047720;28;20258;-32
2022/06/28 04:05:38;;;;;;;2.97;1.30;;;15.80;99.90;;;;;;5048957;28;20606;-32
2022/06/28 04:08:08;;;;;;;6.13;1.47;;;15.80;99.90;;;;;;5064489;28;20219;-31
2022/06/28 04:10:35;;;;;;;2.27;1.27;;;15.80;99.90;;;;;;5063959;28;20200;-33
2022/06/28 04:13:03;;;;;;;2.57;1.30;;;15.80;99.90;;;;;;5047765;28;20196;-32
2022/06/28 04:15:32;;;;;;;3.57;1.47;;;15.80;99.90;;;;;;5049323;28;20302;-32
2022/06/28 04:18:02;;;;;;;2.97;1.37;;;15.80;99.90;;;;;;5048064;28;20686;-31
2022/06/28 04:20:29;;;;;;;5.20;1.60;;;15.80;99.90;;;;;;5047382;28;20196;-32
2022/06/28 04:22:57;;;;;;;3.43;1.47;;;15.80;99.90;;;;;;5048803;28;20336;-32
2022/06/28 04:25:26;;;;;;;3.20;1.50;;;15.80;99.90;;;;;;5047381;28;20200;-31
2022/06/28 04:27:56;;;;;;;3.63;1.60;;;15.80;99.90;;;;;;5049612;28;20331;-32
2022/06/28 04:30:25;;;;;;;4.50;1.50;;;15.80;99.90;;;;;;5063099;28;20205;-31
2022/06/28 04:32:54;;;;;;;4.80;1.50;;;15.80;99.90;;;;;;5046027;28;20227;-32
2022/06/28 04:35:22;;;;;;;4.80;1.40;;;15.80;99.90;;;;;;5041719;28;20258;-32
2022/06/28 04:37:49;;;;;;;2.10;1.17;;;15.80;99.90;;;;;;5049186;28;20232;-32
2022/06/28 04:40:19;;;;;;;5.17;1.33;;;15.90;99.90;;;;;;5047036;28;20204;-32
2022/06/28 04:42:49;;;;;;;1.87;1.23;;;15.90;99.90;;;;;;5046358;28;20624;-32
2022/06/28 04:45:16;;;;;;;3.03;1.10;;;15.90;99.90;;;;;;5068820;28;20212;-32
2022/06/28 04:47:44;;;;;;;2.03;1.13;;;15.90;99.90;;;;;;5047886;28;20201;-32
2022/06/28 04:50:15;;;;;;;4.13;1.27;;;15.90;99.90;;;;;;5046529;28;20246;-32
2022/06/28 04:52:43;;;;;;;3.67;1.43;;;15.90;99.90;;;;;;5046561;28;20265;-33
2022/06/28 04:55:10;;;;;;;3.03;1.40;;;16.00;99.90;;;;;;5047336;28;20773;-32
2022/06/28 04:57:37;;;;;;;2.20;1.43;;;16.00;99.90;;;;;;5046655;28;20291;-32
2022/06/28 05:00:05;;;;;;;6.13;1.40;;;16.00;99.90;;;;;;5048095;28;20302;-32
2022/06/28 05:02:34;;;;;;;2.67;1.30;;;16.00;99.90;;;;;;5047892;28;20255;-32
2022/06/28 05:05:06;;;;;;;2.10;1.10;;;16.00;99.90;;;;;;5046944;28;20220;-32
2022/06/28 05:07:34;;;;;;;2.27;1.40;;;16.10;99.90;;;;;;5046812;28;20238;-32
2022/06/28 05:10:02;;;;;;;4.47;1.43;;;16.10;99.90;;;;;;5047107;28;20211;-32
2022/06/28 05:12:32;;;;;;;2.60;1.40;;;16.20;99.90;;;;;;5048182;28;20594;-32
2022/06/28 05:14:59;;;;;;;6.10;1.43;;;16.20;99.90;;;;;;5046951;28;20236;-32
2022/06/28 05:17:27;;;;;;;3.57;1.30;;;16.20;99.90;;;;;;5046693;28;20200;-32
2022/06/28 05:19:55;;;;;;;1.93;1.47;;;16.20;99.90;;;;;;5046389;28;20736;-32
2022/06/28 05:22:22;;;;;;;3.37;1.53;;;16.30;99.90;;;;;;5047380;28;20278;-32
2022/06/28 05:24:55;;;;;;;4.37;1.67;;;16.30;99.90;;;;;;5047573;28;20204;-32
2022/06/28 05:27:24;;;;;;;2.63;1.43;;;16.40;99.90;;;;;;5046275;28;20201;-32
2022/06/28 05:29:54;;;;;;;5.00;1.60;;;16.40;99.90;;;;;;5047568;28;20472;-32
2022/06/28 05:32:26;;;;;;;3.37;1.37;;;16.50;99.90;;;;;;5045487;28;20247;-32
2022/06/28 05:34:56;;;;;;;3.17;1.40;;;16.50;99.90;;;;;;5045969;28;20219;-33
2022/06/28 05:37:25;;;;;;;5.57;1.30;;;16.50;99.90;;;;;;5051996;28;20267;-32
2022/06/28 05:39:53;;;;;;;4.23;1.20;;;16.60;99.90;;;;;;5047041;28;20306;-32
2022/06/28 05:42:22;;;;;;;5.33;1.27;;;16.60;99.90;;;;;;5042967;28;20668;-32
2022/06/28 05:44:50;;;;;;;7.00;1.50;;;16.70;99.90;;;;;;5047140;28;20658;-32
2022/06/28 05:47:17;;;;;;;3.50;1.20;;;16.70;99.90;;;;;;5046282;28;20656;-32
2022/06/28 05:49:45;;;;;;;5.57;1.70;;;16.80;99.90;;;;;;5045468;28;20196;-32
2022/06/28 05:52:12;;;;;;;7.27;1.77;;;16.80;99.90;;;;;;5031900;28;20308;-32
2022/06/28 05:54:42;;;;;;;5.57;1.80;;;16.90;99.90;;;;;;5040224;28;20283;-32
2022/06/28 05:57:11;;;;;;;5.33;1.57;;;16.90;99.90;;;;;;5041861;28;20220;-32
2022/06/28 05:59:41;;;;;;;3.40;1.10;;;17.00;99.90;;;;;;5037362;28;20223;-32
2022/06/28 06:02:08;;;;;;;3.20;1.20;;;17.00;99.90;;;;;;5044011;28;21118;-32
2022/06/28 06:04:35;;;;;;;4.30;1.30;;;17.10;99.90;;;;;;5049388;28;20258;-32
2022/06/28 06:07:03;;;;;;;5.77;1.50;;;17.10;99.90;;;;;;5044325;28;20235;-33
2022/06/28 06:09:30;;;;;;;5.50;1.13;;;17.10;99.90;;;;;;5050593;28;20200;-32
2022/06/28 06:12:00;;;;;;;5.57;1.30;;;17.20;99.90;;;;;;5048582;28;20192;-33
2022/06/28 06:14:27;;;;;;;3.63;1.17;;;17.20;99.90;;;;;;5034361;28;20719;-33
2022/06/28 06:16:57;;;;;;;5.67;1.60;;;17.30;99.90;;;;;;5040051;28;20750;-32
2022/06/28 06:19:26;;;;;;;3.47;1.40;;;17.30;99.90;;;;;;5050326;28;20655;-33
2022/06/28 06:21:53;;;;;;;7.43;1.50;;;17.30;99.90;;;;;;5049834;28;20573;-33
2022/06/28 06:24:21;;;;;;;9.47;2.00;;;17.30;99.90;;;;;;5048530;28;20224;-34
2022/06/28 06:26:48;;;;;;;19.87;3.33;;;17.40;99.90;;;;;;5046837;28;20678;-33
2022/06/28 06:29:15;;;;;;;29.87;3.67;;;17.40;99.90;;;;;;5045583;28;20771;-32
2022/06/28 06:31:43;;;;;;;13.73;2.77;;;17.40;99.90;;;;;;5050852;28;20686;-32
2022/06/28 06:34:10;;;;;;;8.07;1.57;;;17.50;99.90;;;;;;5044821;28;20266;-32
2022/06/28 06:36:44;;;;;;;7.30;1.60;;;17.50;99.90;;;;;;5047900;28;20240;-32
2022/06/28 06:39:12;;;;;;;2.93;1.50;;;17.60;99.90;;;;;;5049859;28;20205;-32
2022/06/28 06:41:40;;;;;;;8.97;1.23;;;17.60;99.90;;;;;;5045674;28;20222;-32
2022/06/28 06:44:07;;;;;;;5.70;1.20;;;17.60;99.90;;;;;;5050184;28;20259;-32
2022/06/28 06:46:36;;;;;;;4.83;1.50;;;17.70;99.90;;;;;;5048166;28;20204;-32
2022/06/28 06:49:05;;;;;;;10.77;1.80;;;17.70;99.90;;;;;;5051188;28;20216;-32
2022/06/28 06:51:33;;;;;;;8.77;1.53;;;17.70;99.90;;;;;;5050420;28;20204;-32
2022/06/28 06:54:00;;;;;;;6.07;1.00;;;17.80;99.90;;;;;;5049972;28;20212;-32
2022/06/28 06:56:30;;;;;;;7.07;1.40;;;17.80;99.90;;;;;;5049717;28;20204;-32
2022/06/28 06:58:58;;;;;;;3.07;0.80;;;17.90;99.90;;;;;;5053133;28;20208;-32
2022/06/28 07:01:28;;;;;;;4.83;1.50;;;17.90;99.90;;;;;;5046756;28;20674;-32
2022/06/28 07:04:17;;;;;;;40.10;6.23;;;18.00;99.90;;;;;;5049728;28;20686;-32
2022/06/28 07:06:44;;;;;;;35.28;5.95;;;18.00;99.90;;;;;;5049561;28;20729;-32
2022/06/28 07:09:15;;;;;;;15.47;3.30;;;18.00;99.90;;;;;;5058086;28;20207;-33
2022/06/28 07:11:42;;;;;;;11.27;1.90;;;18.10;99.90;;;;;;5059133;28;20240;-32
2022/06/28 07:14:11;;;;;;;5.67;1.30;;;18.10;99.90;;;;;;5040110;28;20232;-33
2022/06/28 07:16:41;;;;;;;4.63;1.50;;;18.20;99.90;;;;;;5046442;28;20238;-32
2022/06/28 07:19:13;;;;;;;5.07;1.40;;;18.20;99.90;;;;;;5052211;28;20226;-32
2022/06/28 07:21:44;;;;;;;4.73;1.00;;;18.30;99.90;;;;;;5032261;28;20574;-38
2022/06/28 07:24:13;;;;;;;5.20;1.10;;;18.40;99.90;;;;;;5038114;28;20324;-32
2022/06/28 07:26:43;;;;;;;6.22;0.90;;;18.40;99.90;;;;;;5050235;28;20286;-32
2022/06/28 07:29:14;;;;;;;11.60;2.80;;;18.50;99.90;;;;;;5048491;28;20667;-32
2022/06/28 07:31:44;;;;;;;17.80;2.87;;;18.60;99.90;;;;;;5047377;28;20654;-42
2022/06/28 07:34:12;;;;;;;11.30;2.27;;;18.60;99.90;;;;;;5045325;28;20303;-42
2022/06/28 07:36:40;;;;;;;6.65;1.35;;;18.60;99.90;;;;;;5047715;28;20232;-42
2022/06/28 07:39:07;;;;;;;2.77;0.80;;;18.70;99.90;;;;;;5052866;28;20579;-42
2022/06/28 07:41:37;;;;;;;4.35;1.30;;;18.70;99.90;;;;;;5049027;28;20685;-42
2022/06/28 07:44:04;;;;;;;1.53;0.67;;;18.80;99.90;;;;;;5051309;28;20244;-42
2022/06/28 07:46:32;;;;;;;3.00;1.00;;;18.80;99.90;;;;;;5049057;28;20196;-42
2022/06/28 07:49:00;;;;;;;3.72;0.93;;;18.80;99.90;;;;;;5047322;28;20228;-42
2022/06/28 07:54:15;;;;;;;2.63;0.73;;;18.90;99.90;;;;;;5040714;28;20739;-42
2022/06/28 07:56:45;;;;;;;4.65;1.73;;;18.90;99.90;;;;;;5047952;28;22396;-42
2022/06/28 07:59:12;;;;;;;2.95;1.00;;;18.90;99.90;;;;;;5043856;28;20275;-42
2022/06/28 08:01:42;;;;;;;3.05;0.77;;;18.90;99.90;;;;;;5047608;28;20340;-42
2022/06/28 08:04:11;;;;;;;6.60;1.05;;;19.00;99.90;;;;;;5046454;28;20733;-42
2022/06/28 08:06:39;;;;;;;5.93;1.65;;;19.00;99.90;;;;;;5066654;28;20219;-42
2022/06/28 08:09:08;;;;;;;3.77;1.20;;;19.00;99.90;;;;;;5039220;28;20208;-42
2022/06/28 08:11:39;;;;;;;1.70;0.70;;;19.00;99.90;;;;;;5044430;28;20205;-42
2022/06/28 08:14:11;;;;;;;2.97;1.15;;;19.10;99.90;;;;;;5047304;28;20607;-42
2022/06/28 08:16:39;;;;;;;2.27;0.70;;;19.10;99.90;;;;;;5047601;28;20257;-42
2022/06/28 08:19:06;;;;;;;2.10;0.75;;;19.20;99.90;;;;;;5050745;28;20632;-42
2022/06/28 08:21:38;;;;;;;2.33;0.93;;;19.20;99.90;;;;;;5048493;28;20223;-42
2022/06/28 08:24:06;;;;;;;2.80;0.70;;;19.20;99.90;;;;;;5043950;28;20224;-42
2022/06/28 08:26:33;;;;;;;4.45;0.82;;;19.30;99.90;;;;;;5045944;28;20729;-42
2022/06/28 08:29:03;;;;;;;1.50;0.80;;;19.30;99.90;;;;;;5056260;28;20212;-42
2022/06/28 08:31:30;;;;;;;1.92;0.82;;;19.30;99.90;;;;;;5045393;28;20192;-42
2022/06/28 08:33:57;;;;;;;4.13;0.90;;;19.30;99.90;;;;;;5041733;28;20211;-42
2022/06/28 08:36:25;;;;;;;4.87;0.80;;;19.40;99.90;;;;;;5039935;28;20573;-42
2022/06/28 08:38:54;;;;;;;5.28;1.00;;;19.40;99.90;;;;;;5040364;28;20212;-42
2022/06/28 08:41:24;;;;;;;1.83;0.82;;;19.40;99.90;;;;;;5042722;28;20233;-41
2022/06/28 08:43:53;;;;;;;2.63;0.70;;;19.40;99.90;;;;;;5047144;28;20605;-41
2022/06/28 08:46:24;;;;;;;3.00;0.53;;;19.50;99.90;;;;;;5044540;28;20212;-41
2022/06/28 08:48:54;;;;;;;1.48;0.75;;;19.50;99.90;;;;;;5048912;28;20196;-42
2022/06/28 08:51:30;;;;;;;3.40;0.70;;;19.60;99.90;;;;;;5047094;28;20314;-42
2022/06/28 08:54:01;;;;;;;1.58;0.50;;;19.60;99.90;;;;;;5042467;28;20204;-42
2022/06/28 08:56:32;;;;;;;3.42;1.10;;;19.60;99.90;;;;;;5049115;28;20235;-42
2022/06/28 08:59:00;;;;;;;16.83;2.10;;;19.70;99.90;;;;;;5050808;28;20207;-42
2022/06/28 09:01:27;;;;;;;12.27;2.13;;;19.70;99.90;;;;;;5048198;28;20615;-42
2022/06/28 09:03:55;;;;;;;4.63;1.10;;;19.80;99.90;;;;;;5048020;28;20224;-32
2022/06/28 09:06:25;;;;;;;5.40;1.63;;;19.80;99.90;;;;;;5046705;28;20251;-33
2022/06/28 09:08:55;;;;;;;1.90;0.73;;;19.90;99.90;;;;;;5050925;28;20204;-32
2022/06/28 09:11:24;;;;;;;7.25;1.88;;;19.90;99.90;;;;;;5041234;28;20348;-32
2022/06/28 09:13:52;;;;;;;3.08;1.20;;;20.00;99.90;;;;;;5047592;28;20404;-32
2022/06/28 09:16:19;;;;;;;4.30;0.80;;;20.00;99.90;;;;;;5047005;28;20269;-32
2022/06/28 09:18:50;;;;;;;1.40;0.55;;;20.00;99.90;;;;;;5046963;28;20223;-32
2022/06/28 09:21:19;;;;;;;1.63;0.60;;;20.10;99.90;;;;;;5046342;28;20200;-42
2022/06/28 09:23:52;;;;;;;1.65;0.65;;;20.10;99.90;;;;;;5039433;28;20648;-42
2022/06/28 09:26:23;;;;;;;9.73;0.98;;;20.10;99.90;;;;;;5059303;28;20204;-42
2022/06/28 09:28:53;;;;;;;1.17;0.50;;;20.20;99.90;;;;;;5047514;28;20235;-42
2022/06/28 09:31:28;;;;;;;2.00;0.70;;;20.20;99.90;;;;;;5047876;28;20300;-42
2022/06/28 09:34:03;;;;;;;1.48;0.55;;;20.20;99.90;;;;;;5041792;28;20210;-42
2022/06/28 09:36:36;;;;;;;4.90;0.73;;;20.30;99.90;;;;;;5037133;28;20239;-42
2022/06/28 09:39:11;;;;;;;3.00;0.70;;;20.30;99.90;;;;;;5046317;28;20262;-43
2022/06/28 09:41:43;;;;;;;2.15;0.98;;;20.40;99.90;;;;;;5044540;28;20207;-43
2022/06/28 09:44:33;;;;;;;3.38;0.55;;;20.40;99.90;;;;;;5053930;28;20227;-42
2022/06/28 09:47:00;;;;;;;1.38;0.50;;;20.50;99.90;;;;;;5047032;28;20192;-42
2022/06/28 09:49:31;;;;;;;1.95;0.40;;;20.50;99.90;;;;;;5047723;28;20218;-42
2022/06/28 09:52:01;;;;;;;4.03;0.73;;;20.60;99.90;;;;;;5047958;28;20192;-43
2022/06/28 09:54:31;;;;;;;1.17;0.50;;;20.60;99.90;;;;;;5048957;28;20220;-44
2022/06/28 09:56:59;;;;;;;0.55;0.40;;;20.70;99.90;;;;;;5040637;28;20625;-42
2022/06/28 09:59:29;;;;;;;3.20;0.88;;;20.70;99.90;;;;;;5047167;28;20576;-43
2022/06/28 10:01:56;;;;;;;2.38;0.70;;;20.80;99.90;;;;;;5047612;28;20248;-44
2022/06/28 10:04:26;;;;;;;2.17;0.70;;;20.80;99.90;;;;;;5046233;28;20220;-43
2022/06/28 10:06:56;;;;;;;4.32;0.95;;;20.90;99.90;;;;;;5056484;28;20210;-42
2022/06/28 10:09:26;;;;;;;2.50;0.70;;;20.90;99.90;;;;;;5049375;28;20211;-43
2022/06/28 10:17:35;;;;;;;4.28;1.00;;;21.10;99.90;;;;;;5061321;28;20207;-33
2022/06/28 10:20:09;;;;;;;2.88;1.00;;;21.10;99.90;;;;;;5038998;28;20285;-32
2022/06/28 10:22:38;;;;;;;4.78;0.80;;;21.20;99.90;;;;;;5046694;28;20208;-32
2022/06/28 10:25:18;;;;;;;1.65;0.70;;;21.20;99.90;;;;;;5042427;28;20706;-33
2022/06/28 10:27:52;;;;;;;1.38;0.85;;;21.30;99.90;;;;;;5062345;28;20260;-32
2022/06/28 10:30:20;;;;;;;4.50;0.80;;;21.40;99.90;;;;;;5047283;28;20210;-45
2022/06/28 10:33:06;;;;;;;1.35;0.73;;;21.40;99.90;;;;;;5046472;28;20301;-42
2022/06/28 10:35:33;;;;;;;1.20;0.80;;;21.50;99.90;;;;;;5029807;28;20702;-43
2022/06/28 10:38:08;;;;;;;2.30;1.10;;;21.50;99.90;;;;;;5046044;28;20313;-43
2022/06/28 10:40:42;;;;;;;4.25;1.25;;;21.60;99.90;;;;;;5053448;28;20215;-42
2022/06/28 10:43:47;;;;;;;1.25;0.80;;;21.60;99.90;;;;;;5049062;28;20245;-42
2022/06/28 10:46:14;;;;;;;1.75;0.77;;;21.70;99.90;;;;;;5044677;28;20220;-42
2022/06/28 10:48:47;;;;;;;3.88;1.55;;;21.70;99.90;;;;;;5046543;28;20204;-43
2022/06/28 10:51:18;;;;;;;2.08;0.90;;;21.80;99.90;;;;;;5044577;28;20685;-33
2022/06/28 10:54:01;;;;;;;8.23;1.92;;;21.80;99.90;;;;;;5043269;28;20249;-33
2022/06/28 10:56:30;;;;;;;3.15;1.00;;;21.90;99.90;;;;;;5045555;28;20569;-33
2022/06/28 10:59:08;;;;;;;6.53;1.10;;;22.00;99.90;;;;;;5048694;28;20235;-32
2022/06/28 11:01:44;;;;;;;4.22;0.88;;;22.00;99.90;;;;;;5048789;28;20549;-33
2022/06/28 11:04:23;;;;;;;8.27;1.75;;;22.10;99.90;;;;;;5044071;28;20216;-33
2022/06/28 11:07:08;;;;;;;5.20;1.42;;;22.10;99.90;;;;;;5046516;28;20231;-34
2022/06/28 11:09:38;;;;;;;4.63;1.05;;;22.20;99.90;;;;;;5050601;28;20204;-32
2022/06/28 11:12:07;;;;;;;3.50;0.93;;;22.20;99.90;;;;;;5050358;28;20287;-33
2022/06/28 11:14:57;;;;;;;4.68;1.48;;;22.30;99.90;;;;;;5049219;28;20235;-32
2022/06/28 11:17:43;;;;;;;9.07;2.47;;;22.40;99.90;;;;;;5050027;28;20242;-33
2022/06/28 11:20:13;;;;;;;3.47;1.30;;;22.40;99.90;;;;;;5045823;28;20200;-33
2022/06/28 11:22:43;;;;;;;2.53;0.85;;;22.50;99.90;;;;;;5044053;28;20212;-32
2022/06/28 11:25:18;;;;;;;1.92;0.90;;;22.60;99.90;;;;;;5045177;28;20262;-33
2022/06/28 11:27:53;;;;;;;1.90;1.02;;;22.70;99.90;;;;;;5050362;28;20678;-33
2022/06/28 11:30:23;;;;;;;10.13;1.42;;;22.70;99.90;;;;;;5045529;28;20749;-33
2022/06/28 11:32:50;;;;;;;4.53;1.23;;;22.80;99.90;;;;;;5045999;28;20196;-43
2022/06/28 11:35:23;;;;;;;3.13;0.98;;;22.80;99.90;;;;;;5047498;28;20295;-43
2022/06/28 11:38:05;;;;;;;1.80;0.90;;;22.90;99.90;;;;;;5048811;28;20239;-43
2022/06/28 11:40:45;;;;;;;2.63;0.75;;;22.90;99.90;;;;;;5047109;28;20243;-43
2022/06/28 11:43:25;;;;;;;2.33;0.93;;;23.00;99.90;;;;;;5051611;28;20220;-44
2022/06/28 11:45:54;;;;;;;1.95;0.80;;;23.00;99.90;;;;;;5041123;28;20683;-43
2022/06/28 11:48:31;;;;;;;5.68;1.30;;;23.00;99.90;;;;;;5044090;28;20224;-43
2022/06/28 11:51:02;;;;;;;4.97;1.15;;;23.00;99.90;;;;;;5035834;28;20274;-44
2022/06/28 11:53:45;;;;;;;1.67;0.95;;;23.10;99.90;;;;;;5048518;28;20223;-43
2022/06/28 11:56:15;;;;;;;1.83;0.82;;;23.10;99.90;;;;;;5048405;28;20204;-43
2022/06/28 11:58:42;;;;;;;3.35;0.90;;;23.10;99.90;;;;;;5047980;28;20203;-43
2022/06/28 12:01:20;;;;;;;5.68;1.33;;;23.20;99.90;;;;;;5044327;28;20646;-43
2022/06/28 12:03:47;;;;;;;4.95;1.40;;;23.20;99.90;;;;;;5049182;28;20621;-43
2022/06/28 12:06:29;;;;;;;7.10;1.70;;;23.30;99.90;;;;;;5049177;28;20208;-43
2022/06/28 12:09:11;;;;;;;7.95;1.55;;;23.40;99.90;;;;;;5047345;28;20210;-43
2022/06/28 12:11:47;;;;;;;3.42;1.00;;;23.50;99.90;;;;;;5047976;28;20618;-43
2022/06/28 12:14:20;;;;;;;2.10;0.77;;;23.50;99.90;;;;;;5047877;28;20211;-43
2022/06/28 12:16:56;;;;;;;1.48;0.80;;;23.60;99.90;;;;;;5048646;28;20683;-43
2022/06/28 12:19:30;;;;;;;4.38;1.30;;;23.60;99.90;;;;;;5047123;28;20201;-43
2022/06/28 12:22:08;;;;;;;2.95;1.10;;;23.70;99.90;;;;;;5049390;28;20214;-43
2022/06/28 12:24:42;;;;;;;1.77;0.80;;;23.80;99.90;;;;;;5046150;28;20216;-44
2022/06/28 12:27:11;;;;;;;1.85;0.93;;;23.80;99.90;;;;;;5048434;28;20674;-43
2022/06/28 12:29:38;;;;;;;2.35;1.13;;;23.90;99.90;;;;;;5046210;28;20197;-44
2022/06/28 12:32:10;;;;;;;3.80;0.93;;;23.90;99.90;;;;;;5042457;28;20299;-44
2022/06/28 12:35:05;;;;;;;4.85;1.38;;;24.00;99.90;;;;;;5045995;28;20209;-44
2022/06/28 12:37:33;;;;;;;5.88;1.33;;;24.00;99.90;;;;;;5047932;28;20245;-45
2022/06/28 12:40:04;;;;;;;3.53;1.25;;;24.10;99.90;;;;;;5045504;28;20201;-44
2022/06/28 12:42:34;;;;;;;1.88;0.80;;;24.20;99.90;;;;;;5046882;28;20223;-44
2022/06/28 12:45:02;;;;;;;3.05;0.73;;;24.20;99.90;;;;;;5047090;28;20224;-44
2022/06/28 12:47:34;;;;;;;5.30;1.83;;;24.30;99.90;;;;;;5046771;28;20188;-43
2022/06/28 12:50:05;;;;;;;4.65;1.27;;;24.30;99.90;;;;;;5044293;28;20200;-43
2022/06/28 12:52:37;;;;;;;2.58;0.93;;;24.40;99.90;;;;;;5049770;28;20354;-44
2022/06/28 12:55:05;;;;;;;2.40;0.63;;;24.50;99.90;;;;;;5042665;28;20207;-44
2022/06/28 12:57:33;;;;;;;1.63;0.77;;;24.50;99.90;;;;;;5054197;28;20204;-44
2022/06/28 13:00:05;;;;;;;3.53;1.05;;;24.60;99.90;;;;;;5040934;28;20262;-44
2022/06/28 13:02:33;;;;;;;6.88;1.20;;;24.60;99.90;;;;;;5048420;28;20204;-44
2022/06/28 13:05:02;;;;;;;3.92;0.95;;;24.70;99.90;;;;;;5040870;28;20231;-44
2022/06/28 13:07:30;;;;;;;1.05;0.60;;;24.70;99.90;;;;;;5038998;28;20212;-33
2022/06/28 13:09:59;;;;;;;2.67;0.70;;;24.80;99.90;;;;;;5041198;28;20206;-33
2022/06/28 13:12:27;;;;;;;4.75;0.95;;;24.80;99.90;;;;;;5043237;28;20574;-33
2022/06/28 13:14:59;;;;;;;9.68;1.42;;;24.90;99.90;;;;;;5059093;28;20311;-33
2022/06/28 13:17:26;;;;;;;3.92;1.63;;;25.00;99.90;;;;;;5025433;28;20251;-33